sensor_id;sensor_type;location;lat;lon;timestamp;temperature;humidity
10046;DHT22;5063;50.878;4.742;2022-10-16T00:01:35;14.30;99.90
10046;DHT22;5063;50.878;4.742;2022-10-16T00:04:01;14.20;99.90
10046;DHT22;5063;50.878;4.742;2022-10-16T00:06:28;14.20;99.90
10046;DHT22;5063;50.878;4.742;2022-10-16T00:08:55;14.20;99.90
10046;DHT22;5063;50.878;4.742;2022-10-16T00:11:26;14.10;99.90
10046;DHT22;5063;50.878;4.742;2022-10-16T00:13:56;14.10;99.90
10046;DHT22;5063;50.878;4.742;2022-10-16T00:16:22;14.20;99.90
10046;DHT22;5063;50.878;4.742;2022-10-16T00:18:48;14.10;99.90
10046;DHT22;5063;50.878;4.742;2022-10-16T00:21:16;14.10;99.90
10046;DHT22;5063;50.878;4.742;2022-10-16T00:23:42;14.10;99.90
10046;DHT22;5063;50.878;4.742;2022-10-16T00:26:11;14.00;99.90
10046;DHT22;5063;50.878;4.742;2022-10-16T00:28:37;14.00;99.90
10046;DHT22;5063;50.878;4.742;2022-10-16T00:31:09;14.00;99.90
10046;DHT22;5063;50.878;4.742;2022-10-16T00:33:36;13.90;99.90
10046;DHT22;5063;50.878;4.742;2022-10-16T00:36:03;13.90;99.90
10046;DHT22;5063;50.878;4.742;2022-10-16T00:38:29;13.90;99.90
10046;DHT22;5063;50.878;4.742;2022-10-16T00:40:55;13.90;99.90
10046;DHT22;5063;50.878;4.742;2022-10-16T00:43:45;13.90;99.90
10046;DHT22;5063;50.878;4.742;2022-10-16T00:51:53;13.80;99.90
10046;DHT22;5063;50.878;4.742;2022-10-16T00:54:23;13.80;99.90
10046;DHT22;5063;50.878;4.742;2022-10-16T00:56:50;13.80;99.90
10046;DHT22;5063;50.878;4.742;2022-10-16T00:59:24;13.70;99.90
10046;DHT22;5063;50.878;4.742;2022-10-16T01:01:51;13.70;99.90
10046;DHT22;5063;50.878;4.742;2022-10-16T01:04:17;13.70;99.90
10046;DHT22;5063;50.878;4.742;2022-10-16T01:10:14;13.70;99.90
10046;DHT22;5063;50.878;4.742;2022-10-16T01:20:35;13.60;99.90
10046;DHT22;5063;50.878;4.742;2022-10-16T01:23:29;13.60;99.90
10046;DHT22;5063;50.878;4.742;2022-10-16T01:26:31;13.60;99.90
10046;DHT22;5063;50.878;4.742;2022-10-16T01:29:15;13.60;99.90
10046;DHT22;5063;50.878;4.742;2022-10-16T01:31:44;13.60;99.90
10046;DHT22;5063;50.878;4.742;2022-10-16T01:34:45;13.60;99.90
10046;DHT22;5063;50.878;4.742;2022-10-16T01:37:18;13.60;99.90
10046;DHT22;5063;50.878;4.742;2022-10-16T01:39:47;13.60;99.90
10046;DHT22;5063;50.878;4.742;2022-10-16T01:42:21;13.60;99.90
10046;DHT22;5063;50.878;4.742;2022-10-16T01:44:48;13.70;99.90
10046;DHT22;5063;50.878;4.742;2022-10-16T01:47:17;13.60;99.90
10046;DHT22;5063;50.878;4.742;2022-10-16T01:49:45;13.60;99.90
10046;DHT22;5063;50.878;4.742;2022-10-16T01:52:14;13.60;99.90
10046;DHT22;5063;50.878;4.742;2022-10-16T01:54:46;13.70;99.90
10046;DHT22;5063;50.878;4.742;2022-10-16T01:57:13;13.60;99.90
10046;DHT22;5063;50.878;4.742;2022-10-16T01:59:45;13.60;99.90
10046;DHT22;5063;50.878;4.742;2022-10-16T02:02:13;13.60;99.90
10046;DHT22;5063;50.878;4.742;2022-10-16T02:04:45;13.60;99.90
10046;DHT22;5063;50.878;4.742;2022-10-16T02:07:12;13.60;99.90
10046;DHT22;5063;50.878;4.742;2022-10-16T02:09:38;13.60;99.90
10046;DHT22;5063;50.878;4.742;2022-10-16T02:12:31;13.60;99.90
10046;DHT22;5063;50.878;4.742;2022-10-16T02:14:58;13.60;99.90
10046;DHT22;5063;50.878;4.742;2022-10-16T02:17:24;13.60;99.90
10046;DHT22;5063;50.878;4.742;2022-10-16T02:19:52;13.60;99.90
10046;DHT22;5063;50.878;4.742;2022-10-16T02:25:10;13.60;99.90
10046;DHT22;5063;50.878;4.742;2022-10-16T02:33:09;13.70;99.90
10046;DHT22;5063;50.878;4.742;2022-10-16T02:35:36;13.70;99.90
10046;DHT22;5063;50.878;4.742;2022-10-16T02:38:03;13.70;99.90
10046;DHT22;5063;50.878;4.742;2022-10-16T02:40:30;13.70;99.90
10046;DHT22;5063;50.878;4.742;2022-10-16T02:42:56;13.60;99.90
10046;DHT22;5063;50.878;4.742;2022-10-16T02:45:23;13.70;99.90
10046;DHT22;5063;50.878;4.742;2022-10-16T02:47:49;13.60;99.90
10046;DHT22;5063;50.878;4.742;2022-10-16T02:50:15;13.60;99.90
10046;DHT22;5063;50.878;4.742;2022-10-16T02:52:41;13.50;99.90
10046;DHT22;5063;50.878;4.742;2022-10-16T02:55:07;13.50;99.90
10046;DHT22;5063;50.878;4.742;2022-10-16T02:57:33;13.50;99.90
10046;DHT22;5063;50.878;4.742;2022-10-16T02:59:59;13.50;99.90
10046;DHT22;5063;50.878;4.742;2022-10-16T03:02:25;13.50;99.90
10046;DHT22;5063;50.878;4.742;2022-10-16T03:04:51;13.50;99.90
10046;DHT22;5063;50.878;4.742;2022-10-16T03:07:17;13.50;99.90
10046;DHT22;5063;50.878;4.742;2022-10-16T03:09:42;13.50;99.90
10046;DHT22;5063;50.878;4.742;2022-10-16T03:12:08;13.50;99.90
10046;DHT22;5063;50.878;4.742;2022-10-16T03:14:34;13.60;99.90
10046;DHT22;5063;50.878;4.742;2022-10-16T03:16:59;13.60;99.90
10046;DHT22;5063;50.878;4.742;2022-10-16T03:19:25;13.60;99.90
10046;DHT22;5063;50.878;4.742;2022-10-16T03:21:51;13.70;99.90
10046;DHT22;5063;50.878;4.742;2022-10-16T03:24:16;13.70;99.90
10046;DHT22;5063;50.878;4.742;2022-10-16T03:26:42;13.80;99.90
10046;DHT22;5063;50.878;4.742;2022-10-16T03:29:08;13.80;99.90
10046;DHT22;5063;50.878;4.742;2022-10-16T03:31:34;13.80;99.90
10046;DHT22;5063;50.878;4.742;2022-10-16T03:33:59;13.90;99.90
10046;DHT22;5063;50.878;4.742;2022-10-16T03:36:25;13.80;99.90
10046;DHT22;5063;50.878;4.742;2022-10-16T03:38:51;13.80;99.90
10046;DHT22;5063;50.878;4.742;2022-10-16T03:41:16;13.80;99.90
10046;DHT22;5063;50.878;4.742;2022-10-16T03:43:42;13.80;99.90
10046;DHT22;5063;50.878;4.742;2022-10-16T03:46:08;13.80;99.90
10046;DHT22;5063;50.878;4.742;2022-10-16T03:48:33;13.70;99.90
10046;DHT22;5063;50.878;4.742;2022-10-16T03:50:59;13.70;99.90
10046;DHT22;5063;50.878;4.742;2022-10-16T03:53:25;13.80;99.90
10046;DHT22;5063;50.878;4.742;2022-10-16T03:55:51;13.70;99.90
10046;DHT22;5063;50.878;4.742;2022-10-16T03:58:17;13.80;99.90
10046;DHT22;5063;50.878;4.742;2022-10-16T04:00:44;13.70;99.90
10046;DHT22;5063;50.878;4.742;2022-10-16T04:03:10;13.70;99.90
10046;DHT22;5063;50.878;4.742;2022-10-16T04:05:36;13.70;99.90
10046;DHT22;5063;50.878;4.742;2022-10-16T04:08:02;13.70;99.90
10046;DHT22;5063;50.878;4.742;2022-10-16T04:10:28;13.70;99.90
10046;DHT22;5063;50.878;4.742;2022-10-16T04:12:53;13.70;99.90
10046;DHT22;5063;50.878;4.742;2022-10-16T04:15:25;13.70;99.90
10046;DHT22;5063;50.878;4.742;2022-10-16T04:17:52;13.70;99.90
10046;DHT22;5063;50.878;4.742;2022-10-16T04:20:18;13.70;99.90
10046;DHT22;5063;50.878;4.742;2022-10-16T04:22:44;13.70;99.90
10046;DHT22;5063;50.878;4.742;2022-10-16T04:25:10;13.70;99.90
10046;DHT22;5063;50.878;4.742;2022-10-16T04:27:37;13.60;99.90
10046;DHT22;5063;50.878;4.742;2022-10-16T04:30:03;13.60;99.90
10046;DHT22;5063;50.878;4.742;2022-10-16T04:32:29;13.60;99.90
10046;DHT22;5063;50.878;4.742;2022-10-16T04:34:55;13.60;99.90
10046;DHT22;5063;50.878;4.742;2022-10-16T04:37:25;13.60;99.90
10046;DHT22;5063;50.878;4.742;2022-10-16T04:39:51;13.70;99.90
10046;DHT22;5063;50.878;4.742;2022-10-16T04:42:19;13.60;99.90
10046;DHT22;5063;50.878;4.742;2022-10-16T04:44:44;13.60;99.90
10046;DHT22;5063;50.878;4.742;2022-10-16T04:47:10;13.60;99.90
10046;DHT22;5063;50.878;4.742;2022-10-16T04:49:36;13.50;99.90
10046;DHT22;5063;50.878;4.742;2022-10-16T04:52:02;13.50;99.90
10046;DHT22;5063;50.878;4.742;2022-10-16T04:54:28;13.50;99.90
10046;DHT22;5063;50.878;4.742;2022-10-16T04:56:54;13.50;99.90
10046;DHT22;5063;50.878;4.742;2022-10-16T04:59:20;13.40;99.90
10046;DHT22;5063;50.878;4.742;2022-10-16T05:01:45;13.40;99.90
10046;DHT22;5063;50.878;4.742;2022-10-16T05:04:11;13.30;99.90
10046;DHT22;5063;50.878;4.742;2022-10-16T05:06:37;13.30;99.90
10046;DHT22;5063;50.878;4.742;2022-10-16T05:09:04;13.20;99.90
10046;DHT22;5063;50.878;4.742;2022-10-16T05:11:31;13.30;99.90
10046;DHT22;5063;50.878;4.742;2022-10-16T05:13:56;13.30;99.90
10046;DHT22;5063;50.878;4.742;2022-10-16T05:16:22;13.30;99.90
10046;DHT22;5063;50.878;4.742;2022-10-16T05:18:48;13.30;99.90
10046;DHT22;5063;50.878;4.742;2022-10-16T05:21:13;13.40;99.90
10046;DHT22;5063;50.878;4.742;2022-10-16T05:23:39;13.40;99.90
10046;DHT22;5063;50.878;4.742;2022-10-16T05:26:05;13.40;99.90
10046;DHT22;5063;50.878;4.742;2022-10-16T05:28:31;13.40;99.90
10046;DHT22;5063;50.878;4.742;2022-10-16T05:30:57;13.30;99.90
10046;DHT22;5063;50.878;4.742;2022-10-16T05:33:25;13.30;99.90
10046;DHT22;5063;50.878;4.742;2022-10-16T05:35:51;13.30;99.90
10046;DHT22;5063;50.878;4.742;2022-10-16T05:38:17;13.30;99.90
10046;DHT22;5063;50.878;4.742;2022-10-16T05:40:43;13.20;99.90
10046;DHT22;5063;50.878;4.742;2022-10-16T05:43:15;13.40;99.90
10046;DHT22;5063;50.878;4.742;2022-10-16T05:45:41;13.20;99.90
10046;DHT22;5063;50.878;4.742;2022-10-16T05:48:06;13.20;99.90
10046;DHT22;5063;50.878;4.742;2022-10-16T05:50:32;13.20;99.90
10046;DHT22;5063;50.878;4.742;2022-10-16T05:52:58;13.10;99.90
10046;DHT22;5063;50.878;4.742;2022-10-16T05:55:23;13.20;99.90
10046;DHT22;5063;50.878;4.742;2022-10-16T05:57:49;13.10;99.90
10046;DHT22;5063;50.878;4.742;2022-10-16T06:00:15;13.10;99.90
10046;DHT22;5063;50.878;4.742;2022-10-16T06:02:40;13.10;99.90
10046;DHT22;5063;50.878;4.742;2022-10-16T06:05:06;13.10;99.90
10046;DHT22;5063;50.878;4.742;2022-10-16T06:07:34;13.10;99.90
10046;DHT22;5063;50.878;4.742;2022-10-16T06:10:01;13.10;99.90
10046;DHT22;5063;50.878;4.742;2022-10-16T06:12:27;13.10;99.90
10046;DHT22;5063;50.878;4.742;2022-10-16T06:14:52;13.10;99.90
10046;DHT22;5063;50.878;4.742;2022-10-16T06:17:18;13.20;99.90
10046;DHT22;5063;50.878;4.742;2022-10-16T06:19:44;13.10;99.90
10046;DHT22;5063;50.878;4.742;2022-10-16T06:22:10;13.20;99.90
10046;DHT22;5063;50.878;4.742;2022-10-16T06:24:36;13.20;99.90
10046;DHT22;5063;50.878;4.742;2022-10-16T06:27:03;13.20;99.90
10046;DHT22;5063;50.878;4.742;2022-10-16T06:29:29;13.20;99.90
10046;DHT22;5063;50.878;4.742;2022-10-16T06:31:55;13.20;99.90
10046;DHT22;5063;50.878;4.742;2022-10-16T06:34:20;13.20;99.90
10046;DHT22;5063;50.878;4.742;2022-10-16T06:36:46;13.20;99.90
10046;DHT22;5063;50.878;4.742;2022-10-16T06:39:12;13.20;99.90
10046;DHT22;5063;50.878;4.742;2022-10-16T06:41:38;13.30;99.90
10046;DHT22;5063;50.878;4.742;2022-10-16T06:44:07;13.30;99.90
10046;DHT22;5063;50.878;4.742;2022-10-16T06:46:33;13.40;99.90
10046;DHT22;5063;50.878;4.742;2022-10-16T06:48:59;13.40;99.90
10046;DHT22;5063;50.878;4.742;2022-10-16T06:51:25;13.50;99.90
10046;DHT22;5063;50.878;4.742;2022-10-16T06:53:55;13.50;99.90
10046;DHT22;5063;50.878;4.742;2022-10-16T06:56:25;13.70;99.90
10046;DHT22;5063;50.878;4.742;2022-10-16T06:58:52;13.80;99.90
10046;DHT22;5063;50.878;4.742;2022-10-16T07:01:21;13.90;99.90
10046;DHT22;5063;50.878;4.742;2022-10-16T07:03:47;14.00;99.90
10046;DHT22;5063;50.878;4.742;2022-10-16T07:06:16;14.10;99.90
10046;DHT22;5063;50.878;4.742;2022-10-16T07:08:43;14.60;99.90
10046;DHT22;5063;50.878;4.742;2022-10-16T07:11:12;15.70;99.90
10046;DHT22;5063;50.878;4.742;2022-10-16T07:13:39;16.30;99.90
10046;DHT22;5063;50.878;4.742;2022-10-16T07:16:15;16.50;99.90
10046;DHT22;5063;50.878;4.742;2022-10-16T07:18:42;16.40;99.90
10046;DHT22;5063;50.878;4.742;2022-10-16T07:21:17;16.20;99.90
10046;DHT22;5063;50.878;4.742;2022-10-16T07:23:45;16.10;99.90
10046;DHT22;5063;50.878;4.742;2022-10-16T07:26:11;16.00;99.90
10046;DHT22;5063;50.878;4.742;2022-10-16T07:28:37;16.10;99.90
10046;DHT22;5063;50.878;4.742;2022-10-16T07:31:10;16.40;99.90
10046;DHT22;5063;50.878;4.742;2022-10-16T07:33:37;16.50;99.90
10046;DHT22;5063;50.878;4.742;2022-10-16T07:36:04;16.30;99.90
10046;DHT22;5063;50.878;4.742;2022-10-16T07:38:30;16.30;99.90
10046;DHT22;5063;50.878;4.742;2022-10-16T07:41:00;16.30;99.90
10046;DHT22;5063;50.878;4.742;2022-10-16T07:43:26;16.60;99.90
10046;DHT22;5063;50.878;4.742;2022-10-16T07:45:52;16.20;99.90
10046;DHT22;5063;50.878;4.742;2022-10-16T07:48:19;16.10;99.90
10046;DHT22;5063;50.878;4.742;2022-10-16T07:50:45;15.90;99.90
10046;DHT22;5063;50.878;4.742;2022-10-16T07:53:11;15.70;99.90
10046;DHT22;5063;50.878;4.742;2022-10-16T07:55:37;15.70;99.90
10046;DHT22;5063;50.878;4.742;2022-10-16T07:58:03;15.60;99.90
10046;DHT22;5063;50.878;4.742;2022-10-16T08:00:30;15.50;99.90
10046;DHT22;5063;50.878;4.742;2022-10-16T08:02:56;15.50;99.90
10046;DHT22;5063;50.878;4.742;2022-10-16T08:05:26;15.60;99.90
10046;DHT22;5063;50.878;4.742;2022-10-16T08:07:52;15.70;99.90
10046;DHT22;5063;50.878;4.742;2022-10-16T08:10:20;15.70;99.90
10046;DHT22;5063;50.878;4.742;2022-10-16T08:12:46;15.60;99.90
10046;DHT22;5063;50.878;4.742;2022-10-16T08:15:11;15.70;99.90
10046;DHT22;5063;50.878;4.742;2022-10-16T08:17:37;15.70;99.90
10046;DHT22;5063;50.878;4.742;2022-10-16T08:20:04;15.70;99.90
10046;DHT22;5063;50.878;4.742;2022-10-16T08:22:30;15.70;99.90
10046;DHT22;5063;50.878;4.742;2022-10-16T08:24:55;15.90;99.90
10046;DHT22;5063;50.878;4.742;2022-10-16T08:27:21;15.80;99.90
10046;DHT22;5063;50.878;4.742;2022-10-16T08:29:48;16.10;99.90
10046;DHT22;5063;50.878;4.742;2022-10-16T08:32:14;16.90;99.90
10046;DHT22;5063;50.878;4.742;2022-10-16T08:34:40;18.00;99.90
10046;DHT22;5063;50.878;4.742;2022-10-16T08:37:05;19.10;99.90
10046;DHT22;5063;50.878;4.742;2022-10-16T08:39:33;19.10;99.90
10046;DHT22;5063;50.878;4.742;2022-10-16T08:47:18;17.60;99.90
10046;DHT22;5063;50.878;4.742;2022-10-16T08:50:09;17.30;99.90
10046;DHT22;5063;50.878;4.742;2022-10-16T08:52:40;17.10;99.90
10046;DHT22;5063;50.878;4.742;2022-10-16T08:55:24;17.00;99.90
10046;DHT22;5063;50.878;4.742;2022-10-16T08:57:53;17.00;99.90
10046;DHT22;5063;50.878;4.742;2022-10-16T09:00:19;17.00;99.90
10046;DHT22;5063;50.878;4.742;2022-10-16T09:08:28;17.10;99.90
10046;DHT22;5063;50.878;4.742;2022-10-16T09:11:09;17.00;99.90
10046;DHT22;5063;50.878;4.742;2022-10-16T09:13:50;17.00;99.90
10046;DHT22;5063;50.878;4.742;2022-10-16T09:16:27;17.20;99.90
10046;DHT22;5063;50.878;4.742;2022-10-16T09:21:40;17.30;99.90
10046;DHT22;5063;50.878;4.742;2022-10-16T09:24:18;17.40;99.90
10046;DHT22;5063;50.878;4.742;2022-10-16T09:26:45;17.40;99.90
10046;DHT22;5063;50.878;4.742;2022-10-16T09:29:13;17.40;99.90
10046;DHT22;5063;50.878;4.742;2022-10-16T09:31:39;17.50;99.90
10046;DHT22;5063;50.878;4.742;2022-10-16T09:34:08;17.60;99.90
10046;DHT22;5063;50.878;4.742;2022-10-16T09:36:43;17.60;99.90
10046;DHT22;5063;50.878;4.742;2022-10-16T09:39:10;17.70;99.90
10046;DHT22;5063;50.878;4.742;2022-10-16T09:41:43;17.80;99.90
10046;DHT22;5063;50.878;4.742;2022-10-16T09:44:28;17.70;99.90
10046;DHT22;5063;50.878;4.742;2022-10-16T09:47:16;17.90;99.90
10046;DHT22;5063;50.878;4.742;2022-10-16T09:49:56;18.20;99.90
10046;DHT22;5063;50.878;4.742;2022-10-16T09:52:23;18.20;99.90
10046;DHT22;5063;50.878;4.742;2022-10-16T09:54:57;18.30;99.90
10046;DHT22;5063;50.878;4.742;2022-10-16T09:57:24;18.40;99.90
10046;DHT22;5063;50.878;4.742;2022-10-16T09:59:51;18.20;99.90
10046;DHT22;5063;50.878;4.742;2022-10-16T10:02:34;18.30;99.90
10046;DHT22;5063;50.878;4.742;2022-10-16T10:05:01;18.30;99.90
10046;DHT22;5063;50.878;4.742;2022-10-16T10:07:35;18.30;99.90
10046;DHT22;5063;50.878;4.742;2022-10-16T10:10:04;18.30;99.90
10046;DHT22;5063;50.878;4.742;2022-10-16T10:12:31;18.30;99.90
10046;DHT22;5063;50.878;4.742;2022-10-16T10:15:05;18.40;99.90
10046;DHT22;5063;50.878;4.742;2022-10-16T10:17:32;18.50;99.90
10046;DHT22;5063;50.878;4.742;2022-10-16T10:20:24;18.60;99.90
10046;DHT22;5063;50.878;4.742;2022-10-16T10:22:50;18.70;99.90
10046;DHT22;5063;50.878;4.742;2022-10-16T10:25:42;18.70;99.90
10046;DHT22;5063;50.878;4.742;2022-10-16T10:31:08;18.70;99.90
10046;DHT22;5063;50.878;4.742;2022-10-16T10:39:06;18.70;99.90
10046;DHT22;5063;50.878;4.742;2022-10-16T10:50:18;19.40;99.90
10046;DHT22;5063;50.878;4.742;2022-10-16T11:01:21;19.40;99.90
10046;DHT22;5063;50.878;4.742;2022-10-16T11:04:15;19.40;99.90
10046;DHT22;5063;50.878;4.742;2022-10-16T11:06:55;19.50;99.90
10046;DHT22;5063;50.878;4.742;2022-10-16T11:09:30;19.50;99.90
10046;DHT22;5063;50.878;4.742;2022-10-16T11:17:40;19.40;99.90
10046;DHT22;5063;50.878;4.742;2022-10-16T11:20:18;19.50;99.90
10046;DHT22;5063;50.878;4.742;2022-10-16T11:25:39;19.50;99.90
10046;DHT22;5063;50.878;4.742;2022-10-16T11:28:22;19.60;99.90
10046;DHT22;5063;50.878;4.742;2022-10-16T11:31:10;19.70;99.90
10046;DHT22;5063;50.878;4.742;2022-10-16T11:33:41;19.80;99.90
10046;DHT22;5063;50.878;4.742;2022-10-16T11:39:09;19.90;99.90
10046;DHT22;5063;50.878;4.742;2022-10-16T11:41:50;19.80;99.90
10046;DHT22;5063;50.878;4.742;2022-10-16T11:44:34;19.80;99.90
10046;DHT22;5063;50.878;4.742;2022-10-16T11:49:37;19.50;99.90
10046;DHT22;5063;50.878;4.742;2022-10-16T11:52:28;19.50;99.90
10046;DHT22;5063;50.878;4.742;2022-10-16T11:54:59;19.60;99.90
10046;DHT22;5063;50.878;4.742;2022-10-16T11:57:29;19.60;99.90
10046;DHT22;5063;50.878;4.742;2022-10-16T12:00:24;19.70;99.90
10046;DHT22;5063;50.878;4.742;2022-10-16T12:03:28;19.70;99.90
10046;DHT22;5063;50.878;4.742;2022-10-16T12:08:36;19.80;99.90
10046;DHT22;5063;50.878;4.742;2022-10-16T12:11:20;20.00;99.90
10046;DHT22;5063;50.878;4.742;2022-10-16T12:13:47;20.20;99.90
10046;DHT22;5063;50.878;4.742;2022-10-16T12:18:41;20.60;99.90
10046;DHT22;5063;50.878;4.742;2022-10-16T12:21:07;21.00;99.90
10046;DHT22;5063;50.878;4.742;2022-10-16T12:23:37;21.20;99.90
10046;DHT22;5063;50.878;4.742;2022-10-16T12:26:04;21.50;99.90
10046;DHT22;5063;50.878;4.742;2022-10-16T12:28:32;21.70;99.90
10046;DHT22;5063;50.878;4.742;2022-10-16T12:31:03;21.80;99.90
10046;DHT22;5063;50.878;4.742;2022-10-16T12:34:14;21.70;99.90
10046;DHT22;5063;50.878;4.742;2022-10-16T12:36:34;22.10;99.90
10046;DHT22;5063;50.878;4.742;2022-10-16T12:39:01;22.20;99.90
10046;DHT22;5063;50.878;4.742;2022-10-16T12:41:31;22.10;99.90
10046;DHT22;5063;50.878;4.742;2022-10-16T12:43:58;21.80;99.90
10046;DHT22;5063;50.878;4.742;2022-10-16T12:51:41;21.80;99.90
10046;DHT22;5063;50.878;4.742;2022-10-16T12:59:40;21.60;99.90
10046;DHT22;5063;50.878;4.742;2022-10-16T13:08:00;21.60;99.90
10046;DHT22;5063;50.878;4.742;2022-10-16T13:10:41;21.60;99.90
10046;DHT22;5063;50.878;4.742;2022-10-16T13:19:01;21.30;99.90
10046;DHT22;5063;50.878;4.742;2022-10-16T13:30:14;21.80;99.90
10046;DHT22;5063;50.878;4.742;2022-10-16T13:32:45;21.90;99.90
10046;DHT22;5063;50.878;4.742;2022-10-16T13:35:27;22.00;99.90
10046;DHT22;5063;50.878;4.742;2022-10-16T13:38:15;22.00;99.90
10046;DHT22;5063;50.878;4.742;2022-10-16T13:41:01;21.80;99.90
10046;DHT22;5063;50.878;4.742;2022-10-16T13:43:39;21.50;99.90
10046;DHT22;5063;50.878;4.742;2022-10-16T13:46:12;21.50;99.90
10046;DHT22;5063;50.878;4.742;2022-10-16T13:48:39;21.50;99.90
10046;DHT22;5063;50.878;4.742;2022-10-16T13:51:17;21.60;99.90
10046;DHT22;5063;50.878;4.742;2022-10-16T13:53:44;21.60;99.90
10046;DHT22;5063;50.878;4.742;2022-10-16T13:56:13;21.60;99.90
10046;DHT22;5063;50.878;4.742;2022-10-16T13:58:39;21.30;99.90
10046;DHT22;5063;50.878;4.742;2022-10-16T14:01:19;21.30;99.90
10046;DHT22;5063;50.878;4.742;2022-10-16T14:03:47;21.20;99.90
10046;DHT22;5063;50.878;4.742;2022-10-16T14:06:21;20.80;99.90
10046;DHT22;5063;50.878;4.742;2022-10-16T14:09:19;20.70;99.90
10046;DHT22;5063;50.878;4.742;2022-10-16T14:11:50;20.60;99.90
10046;DHT22;5063;50.878;4.742;2022-10-16T14:14:20;20.60;99.90
10046;DHT22;5063;50.878;4.742;2022-10-16T14:16:47;20.60;99.90
10046;DHT22;5063;50.878;4.742;2022-10-16T14:21:43;20.80;99.90
10046;DHT22;5063;50.878;4.742;2022-10-16T14:24:14;20.90;99.90
10046;DHT22;5063;50.878;4.742;2022-10-16T14:26:47;20.90;99.90
10046;DHT22;5063;50.878;4.742;2022-10-16T14:29:18;20.70;99.90
10046;DHT22;5063;50.878;4.742;2022-10-16T14:32:01;20.60;99.90
10046;DHT22;5063;50.878;4.742;2022-10-16T14:37:09;20.50;99.90
10046;DHT22;5063;50.878;4.742;2022-10-16T14:39:39;20.30;99.90
10046;DHT22;5063;50.878;4.742;2022-10-16T14:42:14;20.40;99.90
10046;DHT22;5063;50.878;4.742;2022-10-16T14:44:42;20.40;99.90
10046;DHT22;5063;50.878;4.742;2022-10-16T14:47:12;20.40;99.90
10046;DHT22;5063;50.878;4.742;2022-10-16T14:49:38;20.40;99.90
10046;DHT22;5063;50.878;4.742;2022-10-16T14:52:12;20.50;99.90
10046;DHT22;5063;50.878;4.742;2022-10-16T14:54:38;20.50;99.90
10046;DHT22;5063;50.878;4.742;2022-10-16T14:57:05;20.50;99.90
10046;DHT22;5063;50.878;4.742;2022-10-16T14:59:40;20.40;99.90
10046;DHT22;5063;50.878;4.742;2022-10-16T15:02:23;20.40;99.90
10046;DHT22;5063;50.878;4.742;2022-10-16T15:04:50;20.40;99.90
10046;DHT22;5063;50.878;4.742;2022-10-16T15:07:16;20.30;99.90
10046;DHT22;5063;50.878;4.742;2022-10-16T15:09:42;20.10;99.90
10046;DHT22;5063;50.878;4.742;2022-10-16T15:12:08;20.00;99.90
10046;DHT22;5063;50.878;4.742;2022-10-16T15:14:33;19.90;99.90
10046;DHT22;5063;50.878;4.742;2022-10-16T15:16:59;19.90;99.90
10046;DHT22;5063;50.878;4.742;2022-10-16T15:19:25;19.80;99.90
10046;DHT22;5063;50.878;4.742;2022-10-16T15:21:51;19.80;99.90
10046;DHT22;5063;50.878;4.742;2022-10-16T15:24:18;19.80;99.90
10046;DHT22;5063;50.878;4.742;2022-10-16T15:26:44;19.80;99.90
10046;DHT22;5063;50.878;4.742;2022-10-16T15:29:12;19.80;99.90
10046;DHT22;5063;50.878;4.742;2022-10-16T15:31:38;19.70;99.90
10046;DHT22;5063;50.878;4.742;2022-10-16T15:34:04;19.70;99.90
10046;DHT22;5063;50.878;4.742;2022-10-16T15:36:36;19.60;99.90
10046;DHT22;5063;50.878;4.742;2022-10-16T15:39:13;19.50;99.90
10046;DHT22;5063;50.878;4.742;2022-10-16T15:41:39;19.40;99.90
10046;DHT22;5063;50.878;4.742;2022-10-16T15:44:05;19.30;99.90
10046;DHT22;5063;50.878;4.742;2022-10-16T15:46:30;19.20;99.90
10046;DHT22;5063;50.878;4.742;2022-10-16T15:48:57;19.10;99.90
10046;DHT22;5063;50.878;4.742;2022-10-16T15:51:24;18.90;99.90
10046;DHT22;5063;50.878;4.742;2022-10-16T15:53:50;18.80;99.90
10046;DHT22;5063;50.878;4.742;2022-10-16T15:56:16;18.70;99.90
10046;DHT22;5063;50.878;4.742;2022-10-16T15:58:43;18.50;99.90
10046;DHT22;5063;50.878;4.742;2022-10-16T16:01:09;18.40;99.90
10046;DHT22;5063;50.878;4.742;2022-10-16T16:03:37;18.20;99.90
10046;DHT22;5063;50.878;4.742;2022-10-16T16:06:07;18.10;99.90
10046;DHT22;5063;50.878;4.742;2022-10-16T16:08:33;18.00;99.90
10046;DHT22;5063;50.878;4.742;2022-10-16T16:11:00;17.90;99.90
10046;DHT22;5063;50.878;4.742;2022-10-16T16:13:27;17.90;99.90
10046;DHT22;5063;50.878;4.742;2022-10-16T16:15:53;17.80;99.90
10046;DHT22;5063;50.878;4.742;2022-10-16T16:18:19;17.70;99.90
10046;DHT22;5063;50.878;4.742;2022-10-16T16:20:44;17.60;99.90
10046;DHT22;5063;50.878;4.742;2022-10-16T16:23:10;17.50;99.90
10046;DHT22;5063;50.878;4.742;2022-10-16T16:25:36;17.50;99.90
10046;DHT22;5063;50.878;4.742;2022-10-16T16:28:02;17.50;99.90
10046;DHT22;5063;50.878;4.742;2022-10-16T16:30:27;17.30;99.90
10046;DHT22;5063;50.878;4.742;2022-10-16T16:32:53;17.20;99.90
10046;DHT22;5063;50.878;4.742;2022-10-16T16:35:19;17.00;99.90
10046;DHT22;5063;50.878;4.742;2022-10-16T16:37:46;17.00;99.90
10046;DHT22;5063;50.878;4.742;2022-10-16T16:40:12;16.90;99.90
10046;DHT22;5063;50.878;4.742;2022-10-16T16:42:38;16.90;99.90
10046;DHT22;5063;50.878;4.742;2022-10-16T16:45:04;16.80;99.90
10046;DHT22;5063;50.878;4.742;2022-10-16T16:47:30;16.80;99.90
10046;DHT22;5063;50.878;4.742;2022-10-16T16:49:56;16.80;99.90
10046;DHT22;5063;50.878;4.742;2022-10-16T16:52:22;16.80;99.90
10046;DHT22;5063;50.878;4.742;2022-10-16T16:54:48;16.80;99.90
10046;DHT22;5063;50.878;4.742;2022-10-16T16:57:18;16.80;99.90
10046;DHT22;5063;50.878;4.742;2022-10-16T16:59:44;16.80;99.90
10046;DHT22;5063;50.878;4.742;2022-10-16T17:02:10;16.70;99.90
10046;DHT22;5063;50.878;4.742;2022-10-16T17:04:36;16.70;99.90
10046;DHT22;5063;50.878;4.742;2022-10-16T17:07:02;16.70;99.90
10046;DHT22;5063;50.878;4.742;2022-10-16T17:09:27;16.70;99.90
10046;DHT22;5063;50.878;4.742;2022-10-16T17:11:53;16.70;99.90
10046;DHT22;5063;50.878;4.742;2022-10-16T17:14:19;16.70;99.90
10046;DHT22;5063;50.878;4.742;2022-10-16T17:16:45;16.70;99.90
10046;DHT22;5063;50.878;4.742;2022-10-16T17:19:18;16.70;99.90
10046;DHT22;5063;50.878;4.742;2022-10-16T17:21:44;16.70;99.90
10046;DHT22;5063;50.878;4.742;2022-10-16T17:24:10;16.80;99.90
10046;DHT22;5063;50.878;4.742;2022-10-16T17:26:37;16.90;99.90
10046;DHT22;5063;50.878;4.742;2022-10-16T17:29:04;16.90;99.90
10046;DHT22;5063;50.878;4.742;2022-10-16T17:31:35;16.90;99.90
10046;DHT22;5063;50.878;4.742;2022-10-16T17:34:03;16.70;99.90
10046;DHT22;5063;50.878;4.742;2022-10-16T17:36:31;16.60;99.90
10046;DHT22;5063;50.878;4.742;2022-10-16T17:38:59;16.60;99.90
10046;DHT22;5063;50.878;4.742;2022-10-16T17:41:26;16.40;99.90
10046;DHT22;5063;50.878;4.742;2022-10-16T17:43:52;16.40;99.90
10046;DHT22;5063;50.878;4.742;2022-10-16T17:46:20;16.30;99.90
10046;DHT22;5063;50.878;4.742;2022-10-16T17:48:48;16.30;99.90
10046;DHT22;5063;50.878;4.742;2022-10-16T17:51:17;16.30;99.90
10046;DHT22;5063;50.878;4.742;2022-10-16T17:53:46;16.30;99.90
10046;DHT22;5063;50.878;4.742;2022-10-16T17:56:13;16.30;99.90
10046;DHT22;5063;50.878;4.742;2022-10-16T17:58:39;16.20;99.90